Orbital elements of CZ-4B DEB
| Launched | 25 April 2006 |
| Flight ended | – |
| Launch site | Taiyuan Space Center, PRC |
| Owner | People's Republic of China |
| NORAD ID | 29537 |
| Date fetched |
Epoch osculation |
Inc. [°] |
Ecc. | RA asc node [hr] |
Arg Peri. [°] |
Mean anom [°] |
Mean motion [rev/day] |
Abs. mag |
| Date fetched |
Epoch osculation |
Inc. [°] |
Ecc. | RA asc node [hr] |
Arg Peri. [°] |
Mean anom [°] |
Mean motion [rev/day] |
Abs. mag |
| 2026 May 08 17:57 | 2026 May 04 23:23:39 | 97.7796 | 0.01149 | 9.0697 | 258.3905 | 100.4386 | 14.75409 | – |
| 2026 May 07 17:58 | 2026 May 04 23:23:39 | 97.7796 | 0.01149 | 9.0697 | 258.3905 | 100.4386 | 14.75409 | – |
| 2026 May 06 17:57 | 2026 May 04 23:23:39 | 97.7796 | 0.01149 | 9.0697 | 258.3905 | 100.4386 | 14.75409 | – |
| 2026 May 05 17:57 | 2026 May 04 23:23:39 | 97.7796 | 0.01149 | 9.0697 | 258.3905 | 100.4386 | 14.75409 | – |
| 2026 May 04 17:57 | 2026 Apr 30 11:58:02 | 97.7794 | 0.01149 | 8.7825 | 273.0797 | 100.4386 | 14.75409 | – |
| 2026 May 03 17:57 | 2026 Apr 30 11:58:02 | 97.7794 | 0.01149 | 8.7825 | 273.0797 | 100.4386 | 14.75409 | – |
| 2026 May 02 17:57 | 2026 Apr 30 11:58:02 | 97.7794 | 0.01149 | 8.7825 | 273.0797 | 100.4386 | 14.75409 | – |
| 2026 May 01 17:56 | 2026 Apr 30 11:58:02 | 97.7794 | 0.01149 | 8.7825 | 273.0797 | 100.4386 | 14.75409 | – |
| 2026 Apr 30 17:56 | 2026 Apr 30 11:58:02 | 97.7794 | 0.01149 | 8.7825 | 273.0797 | 100.4386 | 14.75409 | – |
| 2026 Apr 29 17:57 | 2026 Apr 24 06:12:55 | 97.7810 | 0.01152 | 8.3822 | 293.6078 | 100.4386 | 14.75409 | – |
| 2026 Apr 28 17:56 | 2026 Apr 24 06:12:55 | 97.7810 | 0.01152 | 8.3822 | 293.6078 | 100.4386 | 14.75409 | – |
| 2026 Apr 27 17:58 | 2026 Apr 24 06:12:55 | 97.7810 | 0.01152 | 8.3822 | 293.6078 | 100.4386 | 14.75409 | – |
| 2026 Apr 26 17:58 | 2026 Apr 24 06:12:55 | 97.7810 | 0.01152 | 8.3822 | 293.6078 | 100.4386 | 14.75409 | – |
| 2026 Apr 25 17:58 | 2026 Apr 24 06:12:55 | 97.7810 | 0.01152 | 8.3822 | 293.6078 | 100.4386 | 14.75409 | – |
| 2026 Apr 24 17:59 | 2026 Apr 24 06:12:55 | 97.7810 | 0.01152 | 8.3822 | 293.6078 | 100.4386 | 14.75409 | – |
| 2026 Apr 23 17:57 | 2026 Apr 18 23:14:49 | 97.7798 | 0.01156 | 8.0427 | 310.9446 | 100.4386 | 14.75409 | – |
| 2026 Apr 22 17:57 | 2026 Apr 18 23:14:49 | 97.7798 | 0.01156 | 8.0427 | 310.9446 | 100.4386 | 14.75409 | – |
| 2026 Apr 21 17:57 | 2026 Apr 18 23:14:49 | 97.7798 | 0.01156 | 8.0427 | 310.9446 | 100.4386 | 14.75409 | – |
| 2026 Apr 20 17:57 | 2026 Apr 18 23:14:49 | 97.7798 | 0.01156 | 8.0427 | 310.9446 | 100.4386 | 14.75409 | – |
| 2026 Apr 19 17:58 | 2026 Apr 18 23:14:49 | 97.7798 | 0.01156 | 8.0427 | 310.9446 | 100.4386 | 14.75409 | – |
| 2026 Apr 18 17:56 | 2026 Apr 12 23:59:48 | 97.7819 | 0.01161 | 7.6599 | 330.4308 | 100.4386 | 14.75409 | – |
| 2026 Apr 16 17:57 | 2026 Apr 12 23:59:48 | 97.7819 | 0.01161 | 7.6599 | 330.4308 | 100.4386 | 14.75409 | – |
| 2026 Apr 14 17:57 | 2026 Apr 12 23:59:48 | 97.7819 | 0.01161 | 7.6599 | 330.4308 | 100.4386 | 14.75409 | – |
| 2026 Apr 13 17:57 | 2026 Apr 12 23:59:48 | 97.7819 | 0.01161 | 7.6599 | 330.4308 | 100.4386 | 14.75409 | – |
| 2026 Apr 12 17:57 | 2026 Apr 07 07:15:12 | 97.7817 | 0.01167 | 7.2943 | 348.9854 | 100.4386 | 14.75409 | – |
| 2026 Apr 11 17:57 | 2026 Apr 07 07:15:12 | 97.7817 | 0.01167 | 7.2943 | 348.9854 | 100.4386 | 14.75409 | – |